sensor_id;sensor_type;location;lat;lon;timestamp;temperature;humidity
10129;DHT22;5104;50.720;7.044;2022-09-21T00:01:50;8.80;99.90
10129;DHT22;5104;50.720;7.044;2022-09-21T00:04:16;8.80;99.90
10129;DHT22;5104;50.720;7.044;2022-09-21T00:06:44;8.70;99.90
10129;DHT22;5104;50.720;7.044;2022-09-21T00:09:13;8.70;99.90
10129;DHT22;5104;50.720;7.044;2022-09-21T00:11:39;8.60;99.90
10129;DHT22;5104;50.720;7.044;2022-09-21T00:14:09;8.70;99.90
10129;DHT22;5104;50.720;7.044;2022-09-21T00:16:36;8.70;99.90
10129;DHT22;5104;50.720;7.044;2022-09-21T00:19:03;8.80;99.90
10129;DHT22;5104;50.720;7.044;2022-09-21T00:21:31;8.80;99.90
10129;DHT22;5104;50.720;7.044;2022-09-21T00:23:58;8.80;99.90
10129;DHT22;5104;50.720;7.044;2022-09-21T00:26:29;8.80;99.90
10129;DHT22;5104;50.720;7.044;2022-09-21T00:28:57;8.80;99.90
10129;DHT22;5104;50.720;7.044;2022-09-21T00:31:25;8.80;99.90
10129;DHT22;5104;50.720;7.044;2022-09-21T00:33:52;8.70;99.90
10129;DHT22;5104;50.720;7.044;2022-09-21T00:36:21;8.70;99.90
10129;DHT22;5104;50.720;7.044;2022-09-21T00:38:50;8.70;99.90
10129;DHT22;5104;50.720;7.044;2022-09-21T00:41:17;8.70;99.90
10129;DHT22;5104;50.720;7.044;2022-09-21T00:43:47;8.80;99.90
10129;DHT22;5104;50.720;7.044;2022-09-21T00:46:19;8.70;99.90
10129;DHT22;5104;50.720;7.044;2022-09-21T00:48:48;8.70;99.90
10129;DHT22;5104;50.720;7.044;2022-09-21T00:51:15;8.70;99.90
10129;DHT22;5104;50.720;7.044;2022-09-21T00:53:43;8.70;99.90
10129;DHT22;5104;50.720;7.044;2022-09-21T00:56:11;8.80;99.90
10129;DHT22;5104;50.720;7.044;2022-09-21T00:58:45;8.80;99.90
10129;DHT22;5104;50.720;7.044;2022-09-21T01:01:13;8.80;99.90
10129;DHT22;5104;50.720;7.044;2022-09-21T01:03:43;8.70;99.90
10129;DHT22;5104;50.720;7.044;2022-09-21T01:06:10;8.70;99.90
10129;DHT22;5104;50.720;7.044;2022-09-21T01:08:38;8.60;99.90
10129;DHT22;5104;50.720;7.044;2022-09-21T01:11:25;8.60;99.90
10129;DHT22;5104;50.720;7.044;2022-09-21T01:14:10;8.50;99.90
10129;DHT22;5104;50.720;7.044;2022-09-21T01:16:44;8.40;99.90
10129;DHT22;5104;50.720;7.044;2022-09-21T01:19:27;8.40;99.90
10129;DHT22;5104;50.720;7.044;2022-09-21T01:21:59;8.40;99.90
10129;DHT22;5104;50.720;7.044;2022-09-21T01:24:49;8.30;99.90
10129;DHT22;5104;50.720;7.044;2022-09-21T01:27:47;8.20;99.90
10129;DHT22;5104;50.720;7.044;2022-09-21T01:30:19;8.10;99.90
10129;DHT22;5104;50.720;7.044;2022-09-21T01:32:51;8.00;99.90
10129;DHT22;5104;50.720;7.044;2022-09-21T01:35:22;7.90;99.90
10129;DHT22;5104;50.720;7.044;2022-09-21T01:37:53;7.80;99.90
10129;DHT22;5104;50.720;7.044;2022-09-21T01:40:26;7.70;99.90
10129;DHT22;5104;50.720;7.044;2022-09-21T01:42:55;7.70;99.90
10129;DHT22;5104;50.720;7.044;2022-09-21T01:45:28;7.60;99.90
10129;DHT22;5104;50.720;7.044;2022-09-21T01:47:59;7.60;99.90
10129;DHT22;5104;50.720;7.044;2022-09-21T01:50:30;7.50;99.90
10129;DHT22;5104;50.720;7.044;2022-09-21T01:53:02;7.50;99.90
10129;DHT22;5104;50.720;7.044;2022-09-21T01:55:35;7.60;99.90
10129;DHT22;5104;50.720;7.044;2022-09-21T01:58:08;7.50;99.90
10129;DHT22;5104;50.720;7.044;2022-09-21T02:00:39;7.50;99.90
10129;DHT22;5104;50.720;7.044;2022-09-21T02:03:11;7.40;99.90
10129;DHT22;5104;50.720;7.044;2022-09-21T02:05:40;7.30;99.90
10129;DHT22;5104;50.720;7.044;2022-09-21T02:08:08;7.30;99.90
10129;DHT22;5104;50.720;7.044;2022-09-21T02:10:40;7.40;99.90
10129;DHT22;5104;50.720;7.044;2022-09-21T02:13:08;7.50;99.90
10129;DHT22;5104;50.720;7.044;2022-09-21T02:15:50;7.60;99.90
10129;DHT22;5104;50.720;7.044;2022-09-21T02:18:35;7.60;99.90
10129;DHT22;5104;50.720;7.044;2022-09-21T02:21:10;7.60;99.90
10129;DHT22;5104;50.720;7.044;2022-09-21T02:23:42;7.60;99.90
10129;DHT22;5104;50.720;7.044;2022-09-21T02:26:17;7.40;99.90
10129;DHT22;5104;50.720;7.044;2022-09-21T02:28:49;7.30;99.90
10129;DHT22;5104;50.720;7.044;2022-09-21T02:31:27;7.30;99.90
10129;DHT22;5104;50.720;7.044;2022-09-21T02:33:59;7.30;99.90
10129;DHT22;5104;50.720;7.044;2022-09-21T02:36:31;7.30;99.90
10129;DHT22;5104;50.720;7.044;2022-09-21T02:39:03;7.30;99.90
10129;DHT22;5104;50.720;7.044;2022-09-21T02:41:36;7.40;99.90
10129;DHT22;5104;50.720;7.044;2022-09-21T02:44:07;7.40;99.90
10129;DHT22;5104;50.720;7.044;2022-09-21T02:46:40;7.50;99.90
10129;DHT22;5104;50.720;7.044;2022-09-21T02:49:12;7.50;99.90
10129;DHT22;5104;50.720;7.044;2022-09-21T02:51:46;7.50;99.90
10129;DHT22;5104;50.720;7.044;2022-09-21T02:54:15;7.50;99.90
10129;DHT22;5104;50.720;7.044;2022-09-21T02:56:45;7.50;99.90
10129;DHT22;5104;50.720;7.044;2022-09-21T02:59:13;7.50;99.90
10129;DHT22;5104;50.720;7.044;2022-09-21T03:01:42;7.50;99.90
10129;DHT22;5104;50.720;7.044;2022-09-21T03:04:09;7.60;99.90
10129;DHT22;5104;50.720;7.044;2022-09-21T03:06:36;7.60;99.90
10129;DHT22;5104;50.720;7.044;2022-09-21T03:09:03;7.50;99.90
10129;DHT22;5104;50.720;7.044;2022-09-21T03:11:30;7.50;99.90
10129;DHT22;5104;50.720;7.044;2022-09-21T03:13:58;7.60;99.90
10129;DHT22;5104;50.720;7.044;2022-09-21T03:16:25;7.60;99.90
10129;DHT22;5104;50.720;7.044;2022-09-21T03:18:53;7.50;99.90
10129;DHT22;5104;50.720;7.044;2022-09-21T03:21:19;7.50;99.90
10129;DHT22;5104;50.720;7.044;2022-09-21T03:23:47;7.30;99.90
10129;DHT22;5104;50.720;7.044;2022-09-21T03:26:13;7.20;99.90
10129;DHT22;5104;50.720;7.044;2022-09-21T03:28:40;7.20;99.90
10129;DHT22;5104;50.720;7.044;2022-09-21T03:31:07;7.10;99.90
10129;DHT22;5104;50.720;7.044;2022-09-21T03:33:34;7.20;99.90
10129;DHT22;5104;50.720;7.044;2022-09-21T03:36:02;7.20;99.90
10129;DHT22;5104;50.720;7.044;2022-09-21T03:38:29;7.20;99.90
10129;DHT22;5104;50.720;7.044;2022-09-21T03:40:56;7.20;99.90
10129;DHT22;5104;50.720;7.044;2022-09-21T03:43:23;7.20;99.90
10129;DHT22;5104;50.720;7.044;2022-09-21T03:45:50;7.30;99.90
10129;DHT22;5104;50.720;7.044;2022-09-21T03:48:17;7.20;99.90
10129;DHT22;5104;50.720;7.044;2022-09-21T03:50:44;7.20;99.90
10129;DHT22;5104;50.720;7.044;2022-09-21T03:53:12;7.10;99.90
10129;DHT22;5104;50.720;7.044;2022-09-21T03:55:40;7.10;99.90
10129;DHT22;5104;50.720;7.044;2022-09-21T03:58:07;7.00;99.90
10129;DHT22;5104;50.720;7.044;2022-09-21T04:00:34;6.90;99.90
10129;DHT22;5104;50.720;7.044;2022-09-21T04:03:02;6.70;99.90
10129;DHT22;5104;50.720;7.044;2022-09-21T04:05:29;6.70;99.90
10129;DHT22;5104;50.720;7.044;2022-09-21T04:07:56;6.70;99.90
10129;DHT22;5104;50.720;7.044;2022-09-21T04:10:24;6.70;99.90
10129;DHT22;5104;50.720;7.044;2022-09-21T04:12:58;6.80;99.90
10129;DHT22;5104;50.720;7.044;2022-09-21T04:15:27;6.80;99.90
10129;DHT22;5104;50.720;7.044;2022-09-21T04:17:54;6.70;99.90
10129;DHT22;5104;50.720;7.044;2022-09-21T04:20:21;6.60;99.90
10129;DHT22;5104;50.720;7.044;2022-09-21T04:22:48;6.50;99.90
10129;DHT22;5104;50.720;7.044;2022-09-21T04:25:16;6.40;99.90
10129;DHT22;5104;50.720;7.044;2022-09-21T04:27:44;6.30;99.90
10129;DHT22;5104;50.720;7.044;2022-09-21T04:30:12;6.30;99.90
10129;DHT22;5104;50.720;7.044;2022-09-21T04:32:39;6.40;99.90
10129;DHT22;5104;50.720;7.044;2022-09-21T04:35:07;6.30;99.90
10129;DHT22;5104;50.720;7.044;2022-09-21T04:37:34;6.30;99.90
10129;DHT22;5104;50.720;7.044;2022-09-21T04:40:01;6.30;99.90
10129;DHT22;5104;50.720;7.044;2022-09-21T04:42:28;6.30;99.90
10129;DHT22;5104;50.720;7.044;2022-09-21T04:44:57;6.20;99.90
10129;DHT22;5104;50.720;7.044;2022-09-21T04:47:23;6.20;99.90
10129;DHT22;5104;50.720;7.044;2022-09-21T04:49:50;6.20;99.90
10129;DHT22;5104;50.720;7.044;2022-09-21T04:52:18;6.40;99.90
10129;DHT22;5104;50.720;7.044;2022-09-21T04:54:45;6.40;99.90
10129;DHT22;5104;50.720;7.044;2022-09-21T04:57:12;6.50;99.90
10129;DHT22;5104;50.720;7.044;2022-09-21T04:59:39;6.50;99.90
10129;DHT22;5104;50.720;7.044;2022-09-21T05:02:07;6.50;99.90
10129;DHT22;5104;50.720;7.044;2022-09-21T05:04:34;6.50;99.90
10129;DHT22;5104;50.720;7.044;2022-09-21T05:07:01;6.50;99.90
10129;DHT22;5104;50.720;7.044;2022-09-21T05:09:28;6.50;99.90
10129;DHT22;5104;50.720;7.044;2022-09-21T05:12:12;6.50;99.90
10129;DHT22;5104;50.720;7.044;2022-09-21T05:14:39;6.50;99.90
10129;DHT22;5104;50.720;7.044;2022-09-21T05:17:10;6.50;99.90
10129;DHT22;5104;50.720;7.044;2022-09-21T05:19:37;6.50;99.90
10129;DHT22;5104;50.720;7.044;2022-09-21T05:22:04;6.50;99.90
10129;DHT22;5104;50.720;7.044;2022-09-21T05:24:31;6.50;99.90
10129;DHT22;5104;50.720;7.044;2022-09-21T05:26:58;6.40;99.90
10129;DHT22;5104;50.720;7.044;2022-09-21T05:29:25;6.40;99.90
10129;DHT22;5104;50.720;7.044;2022-09-21T05:31:56;6.40;99.90
10129;DHT22;5104;50.720;7.044;2022-09-21T05:34:44;6.40;99.90
10129;DHT22;5104;50.720;7.044;2022-09-21T05:37:26;6.40;99.90
10129;DHT22;5104;50.720;7.044;2022-09-21T05:40:00;6.40;99.90
10129;DHT22;5104;50.720;7.044;2022-09-21T05:42:27;6.40;99.90
10129;DHT22;5104;50.720;7.044;2022-09-21T05:44:55;6.50;99.90
10129;DHT22;5104;50.720;7.044;2022-09-21T05:47:24;6.50;99.90
10129;DHT22;5104;50.720;7.044;2022-09-21T05:49:58;6.50;99.90
10129;DHT22;5104;50.720;7.044;2022-09-21T05:52:32;6.60;99.90
10129;DHT22;5104;50.720;7.044;2022-09-21T05:55:09;6.70;99.90
10129;DHT22;5104;50.720;7.044;2022-09-21T05:57:45;6.70;99.90
10129;DHT22;5104;50.720;7.044;2022-09-21T06:00:16;6.70;99.90
10129;DHT22;5104;50.720;7.044;2022-09-21T06:02:52;6.80;99.90
10129;DHT22;5104;50.720;7.044;2022-09-21T06:05:23;6.90;99.90
10129;DHT22;5104;50.720;7.044;2022-09-21T06:07:50;7.00;99.90
10129;DHT22;5104;50.720;7.044;2022-09-21T06:10:17;7.00;99.90
10129;DHT22;5104;50.720;7.044;2022-09-21T06:12:43;7.10;99.90
10129;DHT22;5104;50.720;7.044;2022-09-21T06:15:13;7.00;99.90
10129;DHT22;5104;50.720;7.044;2022-09-21T06:17:41;7.10;99.90
10129;DHT22;5104;50.720;7.044;2022-09-21T06:20:08;7.20;99.90
10129;DHT22;5104;50.720;7.044;2022-09-21T06:22:37;7.30;99.90
10129;DHT22;5104;50.720;7.044;2022-09-21T06:25:04;7.40;99.90
10129;DHT22;5104;50.720;7.044;2022-09-21T06:27:31;7.50;99.90
10129;DHT22;5104;50.720;7.044;2022-09-21T06:29:58;7.50;99.90
10129;DHT22;5104;50.720;7.044;2022-09-21T06:32:25;7.60;99.90
10129;DHT22;5104;50.720;7.044;2022-09-21T06:34:52;7.60;99.90
10129;DHT22;5104;50.720;7.044;2022-09-21T06:37:18;7.80;99.90
10129;DHT22;5104;50.720;7.044;2022-09-21T06:39:47;7.90;99.90
10129;DHT22;5104;50.720;7.044;2022-09-21T06:42:14;7.90;99.90
10129;DHT22;5104;50.720;7.044;2022-09-21T06:44:40;8.00;99.90
10129;DHT22;5104;50.720;7.044;2022-09-21T06:47:07;8.20;99.90
10129;DHT22;5104;50.720;7.044;2022-09-21T06:49:34;8.30;99.90
10129;DHT22;5104;50.720;7.044;2022-09-21T06:52:01;8.30;99.90
10129;DHT22;5104;50.720;7.044;2022-09-21T06:54:28;8.40;99.90
10129;DHT22;5104;50.720;7.044;2022-09-21T06:56:57;8.40;99.90
10129;DHT22;5104;50.720;7.044;2022-09-21T06:59:23;8.50;99.90
10129;DHT22;5104;50.720;7.044;2022-09-21T07:01:50;8.60;99.90
10129;DHT22;5104;50.720;7.044;2022-09-21T07:04:21;8.70;99.90
10129;DHT22;5104;50.720;7.044;2022-09-21T07:06:50;8.90;99.90
10129;DHT22;5104;50.720;7.044;2022-09-21T07:09:16;9.00;99.90
10129;DHT22;5104;50.720;7.044;2022-09-21T07:11:43;9.00;99.90
10129;DHT22;5104;50.720;7.044;2022-09-21T07:14:12;9.20;99.90
10129;DHT22;5104;50.720;7.044;2022-09-21T07:16:40;9.30;99.90
10129;DHT22;5104;50.720;7.044;2022-09-21T07:19:08;9.40;99.90
10129;DHT22;5104;50.720;7.044;2022-09-21T07:21:34;9.40;99.90
10129;DHT22;5104;50.720;7.044;2022-09-21T07:24:01;9.50;99.90
10129;DHT22;5104;50.720;7.044;2022-09-21T07:26:28;9.70;99.90
10129;DHT22;5104;50.720;7.044;2022-09-21T07:28:55;9.80;99.90
10129;DHT22;5104;50.720;7.044;2022-09-21T07:31:23;9.70;99.90
10129;DHT22;5104;50.720;7.044;2022-09-21T07:33:55;9.80;99.90
10129;DHT22;5104;50.720;7.044;2022-09-21T07:36:22;9.90;99.90
10129;DHT22;5104;50.720;7.044;2022-09-21T07:38:49;10.00;99.90
10129;DHT22;5104;50.720;7.044;2022-09-21T07:41:16;10.10;99.90
10129;DHT22;5104;50.720;7.044;2022-09-21T07:43:43;10.30;99.90
10129;DHT22;5104;50.720;7.044;2022-09-21T07:46:11;10.30;99.90
10129;DHT22;5104;50.720;7.044;2022-09-21T07:48:40;10.40;99.90
10129;DHT22;5104;50.720;7.044;2022-09-21T07:51:09;10.60;99.90
10129;DHT22;5104;50.720;7.044;2022-09-21T07:53:37;10.70;99.90
10129;DHT22;5104;50.720;7.044;2022-09-21T07:56:06;10.70;99.90
10129;DHT22;5104;50.720;7.044;2022-09-21T07:58:34;10.80;99.90
10129;DHT22;5104;50.720;7.044;2022-09-21T08:01:18;10.90;99.90
10129;DHT22;5104;50.720;7.044;2022-09-21T08:03:49;11.00;99.90
10129;DHT22;5104;50.720;7.044;2022-09-21T08:06:16;11.20;99.90
10129;DHT22;5104;50.720;7.044;2022-09-21T08:08:43;11.30;99.90
10129;DHT22;5104;50.720;7.044;2022-09-21T08:11:13;11.30;99.90
10129;DHT22;5104;50.720;7.044;2022-09-21T08:13:40;11.40;99.90
10129;DHT22;5104;50.720;7.044;2022-09-21T08:16:07;11.50;99.90
10129;DHT22;5104;50.720;7.044;2022-09-21T08:18:36;11.50;99.90
10129;DHT22;5104;50.720;7.044;2022-09-21T08:21:05;11.60;99.90
10129;DHT22;5104;50.720;7.044;2022-09-21T08:23:32;11.50;99.90
10129;DHT22;5104;50.720;7.044;2022-09-21T08:26:01;11.70;99.90
10129;DHT22;5104;50.720;7.044;2022-09-21T08:28:28;11.90;99.90
10129;DHT22;5104;50.720;7.044;2022-09-21T08:30:58;11.80;99.90
10129;DHT22;5104;50.720;7.044;2022-09-21T08:33:25;11.90;99.90
10129;DHT22;5104;50.720;7.044;2022-09-21T08:35:53;12.10;99.90
10129;DHT22;5104;50.720;7.044;2022-09-21T08:38:21;12.20;99.90
10129;DHT22;5104;50.720;7.044;2022-09-21T08:40:49;12.30;99.90
10129;DHT22;5104;50.720;7.044;2022-09-21T08:43:20;12.40;99.90
10129;DHT22;5104;50.720;7.044;2022-09-21T08:45:47;12.50;99.90
10129;DHT22;5104;50.720;7.044;2022-09-21T08:48:18;12.40;99.90
10129;DHT22;5104;50.720;7.044;2022-09-21T08:50:48;12.60;99.90
10129;DHT22;5104;50.720;7.044;2022-09-21T08:53:20;12.70;99.90
10129;DHT22;5104;50.720;7.044;2022-09-21T08:55:49;12.80;99.90
10129;DHT22;5104;50.720;7.044;2022-09-21T08:58:23;12.80;99.90
10129;DHT22;5104;50.720;7.044;2022-09-21T09:01:00;12.80;99.90
10129;DHT22;5104;50.720;7.044;2022-09-21T09:03:42;13.00;99.90
10129;DHT22;5104;50.720;7.044;2022-09-21T09:06:15;13.10;99.90
10129;DHT22;5104;50.720;7.044;2022-09-21T09:08:56;13.20;99.90
10129;DHT22;5104;50.720;7.044;2022-09-21T09:11:40;13.10;65.10
10129;DHT22;5104;50.720;7.044;2022-09-21T09:14:18;13.20;1.80
10129;DHT22;5104;50.720;7.044;2022-09-21T09:16:57;13.30;5.80
10129;DHT22;5104;50.720;7.044;2022-09-21T09:19:31;13.40;1.00
10129;DHT22;5104;50.720;7.044;2022-09-21T09:22:01;13.40;1.00
10129;DHT22;5104;50.720;7.044;2022-09-21T09:24:37;13.60;1.00
10129;DHT22;5104;50.720;7.044;2022-09-21T09:27:12;13.60;1.00
10129;DHT22;5104;50.720;7.044;2022-09-21T09:29:48;13.60;1.00
10129;DHT22;5104;50.720;7.044;2022-09-21T09:32:25;13.80;1.00
10129;DHT22;5104;50.720;7.044;2022-09-21T09:34:59;13.80;1.00
10129;DHT22;5104;50.720;7.044;2022-09-21T09:37:31;14.00;1.00
10129;DHT22;5104;50.720;7.044;2022-09-21T09:40:01;14.00;1.00
10129;DHT22;5104;50.720;7.044;2022-09-21T09:42:45;13.80;1.00
10129;DHT22;5104;50.720;7.044;2022-09-21T09:45:26;13.90;1.00
10129;DHT22;5104;50.720;7.044;2022-09-21T09:48:15;14.10;1.00
10129;DHT22;5104;50.720;7.044;2022-09-21T09:50:45;14.20;1.00
10129;DHT22;5104;50.720;7.044;2022-09-21T09:53:14;14.30;1.00
10129;DHT22;5104;50.720;7.044;2022-09-21T09:55:51;14.50;1.00
10129;DHT22;5104;50.720;7.044;2022-09-21T09:58:21;14.40;1.00
10129;DHT22;5104;50.720;7.044;2022-09-21T10:00:51;14.50;1.00
10129;DHT22;5104;50.720;7.044;2022-09-21T10:03:20;14.60;1.00
10129;DHT22;5104;50.720;7.044;2022-09-21T10:05:47;14.70;1.00
10129;DHT22;5104;50.720;7.044;2022-09-21T10:08:37;14.80;1.00
10129;DHT22;5104;50.720;7.044;2022-09-21T10:11:08;14.70;1.00
10129;DHT22;5104;50.720;7.044;2022-09-21T10:13:36;14.60;1.00
10129;DHT22;5104;50.720;7.044;2022-09-21T10:16:14;14.50;1.00
10129;DHT22;5104;50.720;7.044;2022-09-21T10:18:46;14.50;1.00
10129;DHT22;5104;50.720;7.044;2022-09-21T10:21:18;14.50;1.00
10129;DHT22;5104;50.720;7.044;2022-09-21T10:23:48;14.50;1.00
10129;DHT22;5104;50.720;7.044;2022-09-21T10:26:18;14.50;1.00
10129;DHT22;5104;50.720;7.044;2022-09-21T10:28:56;14.80;1.00
10129;DHT22;5104;50.720;7.044;2022-09-21T10:31:25;15.00;99.90
10129;DHT22;5104;50.720;7.044;2022-09-21T10:33:54;15.30;85.10
10129;DHT22;5104;50.720;7.044;2022-09-21T10:36:32;15.40;99.90
10129;DHT22;5104;50.720;7.044;2022-09-21T10:39:20;15.60;1.00
10129;DHT22;5104;50.720;7.044;2022-09-21T10:41:49;15.80;1.00
10129;DHT22;5104;50.720;7.044;2022-09-21T10:44:18;15.90;99.90
10129;DHT22;5104;50.720;7.044;2022-09-21T10:46:47;15.80;1.00
10129;DHT22;5104;50.720;7.044;2022-09-21T10:49:19;15.70;1.00
10129;DHT22;5104;50.720;7.044;2022-09-21T10:51:48;15.70;1.00
10129;DHT22;5104;50.720;7.044;2022-09-21T10:54:20;15.90;99.90
10129;DHT22;5104;50.720;7.044;2022-09-21T10:56:58;15.90;99.90
10129;DHT22;5104;50.720;7.044;2022-09-21T10:59:28;15.80;1.00
10129;DHT22;5104;50.720;7.044;2022-09-21T11:01:56;15.80;1.00
10129;DHT22;5104;50.720;7.044;2022-09-21T11:04:42;16.00;1.00
10129;DHT22;5104;50.720;7.044;2022-09-21T11:07:15;16.20;1.00
10129;DHT22;5104;50.720;7.044;2022-09-21T11:09:47;16.20;99.90
10129;DHT22;5104;50.720;7.044;2022-09-21T11:12:33;16.30;1.00
10129;DHT22;5104;50.720;7.044;2022-09-21T11:15:09;16.00;13.80
10129;DHT22;5104;50.720;7.044;2022-09-21T11:17:43;16.20;99.90
10129;DHT22;5104;50.720;7.044;2022-09-21T11:20:19;16.40;1.00
10129;DHT22;5104;50.720;7.044;2022-09-21T11:22:53;16.40;99.90
10129;DHT22;5104;50.720;7.044;2022-09-21T11:25:30;16.40;99.90
10129;DHT22;5104;50.720;7.044;2022-09-21T11:28:08;16.50;1.00
10129;DHT22;5104;50.720;7.044;2022-09-21T11:30:51;16.50;1.00
10129;DHT22;5104;50.720;7.044;2022-09-21T11:33:35;16.60;99.90
10129;DHT22;5104;50.720;7.044;2022-09-21T11:36:11;16.60;84.30
10129;DHT22;5104;50.720;7.044;2022-09-21T11:38:48;16.70;23.00
10129;DHT22;5104;50.720;7.044;2022-09-21T11:44:24;16.60;99.90
10129;DHT22;5104;50.720;7.044;2022-09-21T11:47:00;16.60;1.00
10129;DHT22;5104;50.720;7.044;2022-09-21T11:49:44;16.80;1.00
10129;DHT22;5104;50.720;7.044;2022-09-21T11:52:30;16.90;1.00
10129;DHT22;5104;50.720;7.044;2022-09-21T11:55:15;17.00;1.00
10129;DHT22;5104;50.720;7.044;2022-09-21T11:57:52;17.30;1.00
10129;DHT22;5104;50.720;7.044;2022-09-21T12:00:22;17.40;99.90
10129;DHT22;5104;50.720;7.044;2022-09-21T12:03:13;17.40;99.90
10129;DHT22;5104;50.720;7.044;2022-09-21T12:05:50;17.10;18.90
10129;DHT22;5104;50.720;7.044;2022-09-21T12:11:26;17.10;99.90
10129;DHT22;5104;50.720;7.044;2022-09-21T12:14:01;17.20;1.00
10129;DHT22;5104;50.720;7.044;2022-09-21T12:16:37;17.10;99.90
10129;DHT22;5104;50.720;7.044;2022-09-21T12:19:12;17.30;99.90
10129;DHT22;5104;50.720;7.044;2022-09-21T12:21:47;17.30;82.30
10129;DHT22;5104;50.720;7.044;2022-09-21T12:24:19;17.30;1.00
10129;DHT22;5104;50.720;7.044;2022-09-21T12:26:50;17.40;1.00
10129;DHT22;5104;50.720;7.044;2022-09-21T12:29:21;17.30;1.00
10129;DHT22;5104;50.720;7.044;2022-09-21T12:31:57;17.40;1.00
10129;DHT22;5104;50.720;7.044;2022-09-21T12:34:33;17.00;74.40
10129;DHT22;5104;50.720;7.044;2022-09-21T12:37:07;16.90;99.90
10129;DHT22;5104;50.720;7.044;2022-09-21T12:39:40;16.90;1.00
10129;DHT22;5104;50.720;7.044;2022-09-21T12:42:25;17.00;99.90
10129;DHT22;5104;50.720;7.044;2022-09-21T12:44:57;17.10;99.90
10129;DHT22;5104;50.720;7.044;2022-09-21T12:47:35;17.20;1.00
10129;DHT22;5104;50.720;7.044;2022-09-21T12:50:10;17.30;1.00
10129;DHT22;5104;50.720;7.044;2022-09-21T12:52:40;17.30;99.90
10129;DHT22;5104;50.720;7.044;2022-09-21T12:55:22;17.20;99.90
10129;DHT22;5104;50.720;7.044;2022-09-21T12:57:56;17.30;1.00
10129;DHT22;5104;50.720;7.044;2022-09-21T13:00:29;17.40;99.90
10129;DHT22;5104;50.720;7.044;2022-09-21T13:03:11;17.80;1.00
10129;DHT22;5104;50.720;7.044;2022-09-21T13:05:49;17.70;1.00
10129;DHT22;5104;50.720;7.044;2022-09-21T13:08:23;17.80;1.00
10129;DHT22;5104;50.720;7.044;2022-09-21T13:10:57;17.70;99.90
10129;DHT22;5104;50.720;7.044;2022-09-21T13:13:28;17.70;99.90
10129;DHT22;5104;50.720;7.044;2022-09-21T13:15:55;17.60;99.90
10129;DHT22;5104;50.720;7.044;2022-09-21T13:18:26;17.60;99.90
10129;DHT22;5104;50.720;7.044;2022-09-21T13:20:54;17.80;1.00
10129;DHT22;5104;50.720;7.044;2022-09-21T13:23:25;17.90;99.90
10129;DHT22;5104;50.720;7.044;2022-09-21T13:26:03;17.90;99.90
10129;DHT22;5104;50.720;7.044;2022-09-21T13:28:59;18.00;1.00
10129;DHT22;5104;50.720;7.044;2022-09-21T13:31:51;17.80;1.00
10129;DHT22;5104;50.720;7.044;2022-09-21T13:34:28;17.50;99.90
10129;DHT22;5104;50.720;7.044;2022-09-21T13:37:28;17.60;99.90
10129;DHT22;5104;50.720;7.044;2022-09-21T13:46:55;17.30;1.00
10129;DHT22;5104;50.720;7.044;2022-09-21T13:55:15;17.30;1.00
10129;DHT22;5104;50.720;7.044;2022-09-21T13:57:46;17.30;1.00
10129;DHT22;5104;50.720;7.044;2022-09-21T14:00:40;17.30;1.00
10129;DHT22;5104;50.720;7.044;2022-09-21T14:03:23;17.40;99.90
10129;DHT22;5104;50.720;7.044;2022-09-21T14:05:52;17.40;99.90
10129;DHT22;5104;50.720;7.044;2022-09-21T14:08:27;17.40;1.00
10129;DHT22;5104;50.720;7.044;2022-09-21T14:10:57;17.20;1.00
10129;DHT22;5104;50.720;7.044;2022-09-21T14:13:30;17.10;1.00
10129;DHT22;5104;50.720;7.044;2022-09-21T14:22:40;17.10;1.00
10129;DHT22;5104;50.720;7.044;2022-09-21T14:28:11;17.40;1.00
10129;DHT22;5104;50.720;7.044;2022-09-21T14:30:39;17.40;1.00
10129;DHT22;5104;50.720;7.044;2022-09-21T14:33:16;17.50;1.00
10129;DHT22;5104;50.720;7.044;2022-09-21T14:35:44;17.50;99.90
10129;DHT22;5104;50.720;7.044;2022-09-21T14:38:18;17.60;99.90
10129;DHT22;5104;50.720;7.044;2022-09-21T14:40:47;17.60;99.90
10129;DHT22;5104;50.720;7.044;2022-09-21T14:43:19;17.70;99.90
10129;DHT22;5104;50.720;7.044;2022-09-21T14:46:02;17.80;99.90
10129;DHT22;5104;50.720;7.044;2022-09-21T14:48:41;17.90;99.90
10129;DHT22;5104;50.720;7.044;2022-09-21T14:51:17;18.10;99.90
10129;DHT22;5104;50.720;7.044;2022-09-21T14:54:02;18.50;99.90
10129;DHT22;5104;50.720;7.044;2022-09-21T14:57:07;18.90;99.90
10129;DHT22;5104;50.720;7.044;2022-09-21T14:59:49;18.50;97.60
10129;DHT22;5104;50.720;7.044;2022-09-21T15:02:21;18.60;99.90
10129;DHT22;5104;50.720;7.044;2022-09-21T15:04:59;18.80;37.20
10129;DHT22;5104;50.720;7.044;2022-09-21T15:07:35;18.70;7.70
10129;DHT22;5104;50.720;7.044;2022-09-21T15:10:24;18.70;1.00
10129;DHT22;5104;50.720;7.044;2022-09-21T15:13:23;18.60;1.00
10129;DHT22;5104;50.720;7.044;2022-09-21T15:16:09;18.90;1.00
10129;DHT22;5104;50.720;7.044;2022-09-21T15:18:43;19.20;1.00
10129;DHT22;5104;50.720;7.044;2022-09-21T15:21:20;19.20;1.00
10129;DHT22;5104;50.720;7.044;2022-09-21T15:23:49;19.10;1.00
10129;DHT22;5104;50.720;7.044;2022-09-21T15:26:20;19.00;1.00
10129;DHT22;5104;50.720;7.044;2022-09-21T15:28:52;18.80;7.80
10129;DHT22;5104;50.720;7.044;2022-09-21T15:31:21;18.50;1.00
10129;DHT22;5104;50.720;7.044;2022-09-21T15:33:48;18.20;1.00
10129;DHT22;5104;50.720;7.044;2022-09-21T15:36:21;17.90;3.60
10129;DHT22;5104;50.720;7.044;2022-09-21T15:38:50;17.60;38.20
10129;DHT22;5104;50.720;7.044;2022-09-21T15:41:40;17.40;99.90
10129;DHT22;5104;50.720;7.044;2022-09-21T15:44:13;17.10;99.90
10129;DHT22;5104;50.720;7.044;2022-09-21T15:46:43;16.90;1.00
10129;DHT22;5104;50.720;7.044;2022-09-21T15:49:12;16.70;1.00
10129;DHT22;5104;50.720;7.044;2022-09-21T15:51:42;16.50;1.00
10129;DHT22;5104;50.720;7.044;2022-09-21T15:54:21;16.50;1.00
10129;DHT22;5104;50.720;7.044;2022-09-21T15:56:52;16.60;99.90
10129;DHT22;5104;50.720;7.044;2022-09-21T15:59:20;16.70;99.90
10129;DHT22;5104;50.720;7.044;2022-09-21T16:01:51;16.80;99.90
10129;DHT22;5104;50.720;7.044;2022-09-21T16:04:20;17.00;1.00
10129;DHT22;5104;50.720;7.044;2022-09-21T16:06:59;17.20;1.00
10129;DHT22;5104;50.720;7.044;2022-09-21T16:09:43;17.30;1.00
10129;DHT22;5104;50.720;7.044;2022-09-21T16:12:39;17.40;1.00
10129;DHT22;5104;50.720;7.044;2022-09-21T16:15:14;17.40;1.00
10129;DHT22;5104;50.720;7.044;2022-09-21T16:17:57;17.60;1.00
10129;DHT22;5104;50.720;7.044;2022-09-21T16:20:39;17.60;1.00
10129;DHT22;5104;50.720;7.044;2022-09-21T16:23:12;17.80;1.00
10129;DHT22;5104;50.720;7.044;2022-09-21T16:25:39;18.00;99.90
10129;DHT22;5104;50.720;7.044;2022-09-21T16:28:27;18.20;99.90
10129;DHT22;5104;50.720;7.044;2022-09-21T16:30:55;18.40;99.90
10129;DHT22;5104;50.720;7.044;2022-09-21T16:33:42;18.70;99.90
10129;DHT22;5104;50.720;7.044;2022-09-21T16:36:33;18.70;99.90
10129;DHT22;5104;50.720;7.044;2022-09-21T16:39:03;18.90;99.90
10129;DHT22;5104;50.720;7.044;2022-09-21T16:41:34;19.00;99.90
10129;DHT22;5104;50.720;7.044;2022-09-21T16:44:05;19.10;99.90
10129;DHT22;5104;50.720;7.044;2022-09-21T16:46:31;19.10;99.90
10129;DHT22;5104;50.720;7.044;2022-09-21T16:49:01;19.10;99.90
10129;DHT22;5104;50.720;7.044;2022-09-21T16:51:28;19.00;99.90
10129;DHT22;5104;50.720;7.044;2022-09-21T16:53:55;18.90;1.00
10129;DHT22;5104;50.720;7.044;2022-09-21T16:56:25;18.60;1.00
10129;DHT22;5104;50.720;7.044;2022-09-21T16:58:52;18.30;99.90